createdAt,value
2019-02-08T00:01:43.085Z,41.70
2019-02-08T00:04:20.359Z,44.87
2019-02-08T00:06:54.339Z,41.00
2019-02-08T00:09:29.534Z,44.70
2019-02-08T00:12:07.449Z,48.03
2019-02-08T00:14:42.149Z,42.80
2019-02-08T00:17:15.335Z,46.50
2019-02-08T00:20:06.801Z,41.67
2019-02-08T00:22:39.636Z,49.60
2019-02-08T00:25:15.829Z,42.17
2019-02-08T00:27:48.513Z,45.80
2019-02-08T00:30:22.466Z,42.80
2019-02-08T00:32:54.060Z,42.03
2019-02-08T00:35:24.814Z,44.83
2019-02-08T00:37:55.720Z,47.30
2019-02-08T00:40:28.736Z,45.30
2019-02-08T00:43:00.850Z,44.83
2019-02-08T00:45:36.473Z,47.43
2019-02-08T00:48:10.774Z,48.67
2019-02-08T00:50:44.231Z,46.30
2019-02-08T00:53:18.993Z,40.63
2019-02-08T00:55:54.927Z,42.23
2019-02-08T00:58:29.167Z,43.00
2019-02-08T01:01:00.427Z,41.60
2019-02-08T01:03:40.720Z,46.07
2019-02-08T01:06:14.599Z,53.13
2019-02-08T01:08:47.396Z,45.00
2019-02-08T01:11:20.861Z,44.00
2019-02-08T01:13:54.521Z,40.77
2019-02-08T01:16:30.949Z,47.60
2019-02-08T01:19:01.423Z,42.60
2019-02-08T01:21:33.320Z,44.37
2019-02-08T01:24:08.871Z,48.67
2019-02-08T01:26:54.979Z,47.27
2019-02-08T01:29:25.780Z,45.67
2019-02-08T01:31:56.892Z,47.57
2019-02-08T01:34:34.575Z,47.83
2019-02-08T01:37:07.810Z,56.90
2019-02-08T01:39:42.079Z,55.63
2019-02-08T01:42:12.720Z,58.33
2019-02-08T01:44:44.414Z,64.07
2019-02-08T01:47:17.810Z,58.70
2019-02-08T01:49:50.929Z,58.67
2019-02-08T01:52:24.850Z,53.17
2019-02-08T01:54:59.992Z,51.90
2019-02-08T01:57:30.480Z,56.47
2019-02-08T02:00:04.004Z,55.13
2019-02-08T02:02:35.909Z,60.23
2019-02-08T02:05:10.824Z,50.60
2019-02-08T02:07:42.637Z,66.03
2019-02-08T02:10:37.868Z,57.23
2019-02-08T02:13:13.282Z,60.37
2019-02-08T02:15:51.810Z,63.23
2019-02-08T02:18:23.040Z,58.73
2019-02-08T02:20:54.508Z,60.77
2019-02-08T02:23:25.061Z,60.07
2019-02-08T02:25:56.488Z,56.63
2019-02-08T02:28:28.681Z,64.70
2019-02-08T02:31:02.003Z,68.63
2019-02-08T02:33:36.415Z,62.97
2019-02-08T02:36:09.094Z,56.40
2019-02-08T02:38:42.342Z,63.60
2019-02-08T02:41:14.255Z,63.17
2019-02-08T02:43:50.100Z,55.60
2019-02-08T02:46:23.358Z,60.17
2019-02-08T02:48:57.578Z,66.87
2019-02-08T02:51:29.703Z,63.77
2019-02-08T02:54:04.822Z,61.97
2019-02-08T02:56:35.329Z,73.23
2019-02-08T02:59:08.277Z,62.60
2019-02-08T03:01:39.090Z,62.27
2019-02-08T03:04:11.053Z,64.67
2019-02-08T03:06:42.091Z,65.93
2019-02-08T03:09:31.413Z,61.33
2019-02-08T03:12:14.085Z,61.00
2019-02-08T03:14:46.250Z,58.60
2019-02-08T03:17:19.878Z,60.37
2019-02-08T03:20:11.522Z,70.13
2019-02-08T03:22:43.951Z,63.53
2019-02-08T03:25:21.829Z,62.70
2019-02-08T03:27:56.545Z,70.00
2019-02-08T03:30:32.715Z,64.53
2019-02-08T03:33:04.445Z,60.37
2019-02-08T03:35:35.411Z,68.27
2019-02-08T03:38:06.321Z,67.37
2019-02-08T03:40:52.160Z,66.97
2019-02-08T03:43:25.178Z,65.30
2019-02-08T03:45:57.564Z,68.27
2019-02-08T03:48:28.264Z,66.47
2019-02-08T03:51:01.129Z,66.37
2019-02-08T03:53:34.354Z,69.10
2019-02-08T03:56:07.411Z,69.67
2019-02-08T03:58:41.443Z,67.20
2019-02-08T04:01:14.864Z,68.63
2019-02-08T04:03:48.812Z,76.83
2019-02-08T04:06:21.923Z,75.33
2019-02-08T04:08:56.095Z,72.40
2019-02-08T04:11:30.785Z,70.17
2019-02-08T04:14:06.980Z,73.83
2019-02-08T04:16:39.566Z,70.17
2019-02-08T04:19:10.484Z,70.20
2019-02-08T04:21:44.373Z,78.47
2019-02-08T04:24:17.243Z,81.00
2019-02-08T04:26:53.563Z,70.93
2019-02-08T04:29:28.255Z,77.90
2019-02-08T04:32:02.697Z,74.43
2019-02-08T04:34:39.581Z,65.83
2019-02-08T04:37:15.289Z,83.10
2019-02-08T04:40:04.200Z,78.30
2019-02-08T04:42:34.704Z,77.83
2019-02-08T04:45:06.163Z,74.70
2019-02-08T04:47:38.864Z,68.63
2019-02-08T04:50:21.058Z,61.87
2019-02-08T04:52:55.874Z,55.60
2019-02-08T04:55:33.439Z,58.40
2019-02-08T04:58:05.874Z,46.90
2019-02-08T05:00:37.114Z,50.57
2019-02-08T05:03:26.437Z,48.43
2019-02-08T05:05:58.448Z,49.80
2019-02-08T05:08:29.379Z,46.93
2019-02-08T05:11:06.624Z,48.53
2019-02-08T05:13:41.990Z,44.27
2019-02-08T05:16:16.925Z,43.80
2019-02-08T05:18:50.142Z,49.60
2019-02-08T05:21:39.434Z,39.73
2019-02-08T05:24:28.695Z,42.67
2019-02-08T05:27:03.954Z,43.97
2019-02-08T05:29:36.855Z,41.13
2019-02-08T05:32:09.485Z,43.97
2019-02-08T05:34:44.220Z,47.93
2019-02-08T05:37:14.745Z,44.87
2019-02-08T05:39:48.550Z,43.50
2019-02-08T05:42:20.648Z,42.77
2019-02-08T05:44:52.721Z,38.27
2019-02-08T05:47:24.960Z,40.27
2019-02-08T05:49:58.962Z,37.33
2019-02-08T05:52:34.403Z,34.43
2019-02-08T05:55:20.790Z,34.43
2019-02-08T05:57:51.707Z,32.80
2019-02-08T06:00:40.951Z,31.73
2019-02-08T06:03:18.804Z,33.97
2019-02-08T06:05:52.408Z,25.10
2019-02-08T06:08:27.448Z,26.50
2019-02-08T06:11:05.159Z,29.97
2019-02-08T06:13:36.542Z,23.90
2019-02-08T06:16:09.105Z,24.07
2019-02-08T06:18:40.054Z,24.50
2019-02-08T06:21:13.056Z,22.17
2019-02-08T06:23:46.281Z,19.70
2019-02-08T06:26:19.661Z,23.40
2019-02-08T06:28:52.966Z,18.20
2019-02-08T06:31:27.143Z,20.90
2019-02-08T06:33:59.922Z,19.10
2019-02-08T06:36:32.161Z,16.33
2019-02-08T06:39:09.485Z,17.47
2019-02-08T06:41:39.971Z,17.83
2019-02-08T06:44:15.280Z,16.13
2019-02-08T06:46:52.349Z,17.67
2019-02-08T06:49:24.236Z,16.50
2019-02-08T06:51:55.437Z,16.53
2019-02-08T06:54:27.738Z,16.87
2019-02-08T06:57:31.547Z,17.40
2019-02-08T07:00:09.355Z,17.47
2019-02-08T07:03:08.139Z,19.57
2019-02-08T07:06:14.464Z,16.33
2019-02-08T07:08:57.411Z,19.23
2019-02-08T07:11:46.884Z,13.43
2019-02-08T07:14:46.800Z,16.77
2019-02-08T07:17:38.856Z,15.70
2019-02-08T07:20:33.965Z,19.37
2019-02-08T07:23:32.325Z,16.17
2019-02-08T07:26:22.508Z,17.53
2019-02-08T07:29:22.139Z,18.70
2019-02-08T07:32:24.143Z,16.60
2019-02-08T07:35:25.380Z,19.30
2019-02-08T07:38:20.088Z,17.10
2019-02-08T07:41:23.129Z,17.80
2019-02-08T07:44:13.005Z,20.17
2019-02-08T07:47:04.249Z,13.33
2019-02-08T07:50:15.046Z,15.20
2019-02-08T07:53:07.990Z,14.80
2019-02-08T07:55:47.673Z,19.47
2019-02-08T07:58:39.477Z,13.60
2019-02-08T08:01:28.934Z,16.70
2019-02-08T08:04:21.964Z,13.00
2019-02-08T08:07:14.750Z,15.03
2019-02-08T08:10:14.734Z,14.47
2019-02-08T08:13:07.056Z,14.20
2019-02-08T08:16:30.351Z,11.30
2019-02-08T08:19:25.802Z,11.27
2019-02-08T08:22:40.489Z,15.03
2019-02-08T08:25:33.925Z,12.10
2019-02-08T08:28:33.451Z,13.00
2019-02-08T08:31:19.162Z,12.40
2019-02-08T08:34:05.585Z,15.53
2019-02-08T08:37:17.210Z,12.73
2019-02-08T08:41:01.370Z,15.73
2019-02-08T08:44:01.819Z,14.83
2019-02-08T08:47:40.915Z,13.10
2019-02-08T08:50:48.262Z,12.47
2019-02-08T08:54:32.567Z,11.90
2019-02-08T08:57:40.486Z,17.90
2019-02-08T09:00:42.565Z,11.93
2019-02-08T09:03:59.265Z,14.60
2019-02-08T09:07:03.568Z,12.37
2019-02-08T09:10:15.775Z,15.43
2019-02-08T09:13:38.178Z,13.23
2019-02-08T09:16:49.122Z,10.10
2019-02-08T09:19:52.950Z,21.83
2019-02-08T09:23:13.789Z,13.23
2019-02-08T09:26:24.883Z,11.07
2019-02-08T09:29:33.245Z,12.97
2019-02-08T09:32:59.545Z,11.83
2019-02-08T09:36:13.656Z,9.50
2019-02-08T09:39:49.497Z,10.60
2019-02-08T09:43:06.850Z,14.90
2019-02-08T09:46:01.637Z,12.60
2019-02-08T09:49:06.399Z,14.23
2019-02-08T09:52:12.068Z,11.00
2019-02-08T09:55:16.072Z,14.90
2019-02-08T09:58:38.572Z,13.40
2019-02-08T10:01:44.446Z,12.00
2019-02-08T10:05:18.131Z,11.63
2019-02-08T10:08:51.867Z,14.40
2019-02-08T10:12:19.281Z,12.30
2019-02-08T10:15:43.800Z,10.60
2019-02-08T10:18:52.977Z,18.53
2019-02-08T10:22:33.164Z,18.00
2019-02-08T10:25:42.419Z,10.70
2019-02-08T10:28:56.602Z,18.10
2019-02-08T10:32:06.296Z,10.87
2019-02-08T10:35:22.291Z,16.20
2019-02-08T10:38:50.854Z,21.87
2019-02-08T10:41:59.538Z,14.40
2019-02-08T10:45:16.881Z,9.50
2019-02-08T10:48:55.096Z,12.87
2019-02-08T10:52:13.293Z,13.83
2019-02-08T10:55:29.427Z,9.40
2019-02-08T10:58:54.128Z,8.73
2019-02-08T11:02:34.690Z,10.33
2019-02-08T11:05:56.461Z,12.80
2019-02-08T11:09:09.769Z,13.53
2019-02-08T11:12:22.299Z,10.63
2019-02-08T11:15:30.049Z,11.63
2019-02-08T11:19:10.111Z,9.97
2019-02-08T11:21:44.471Z,11.13
2019-02-08T11:24:28.080Z,8.43
2019-02-08T11:27:03.029Z,8.93
2019-02-08T11:29:37.358Z,12.00
2019-02-08T11:32:09.283Z,13.30
2019-02-08T11:34:40.179Z,7.23
2019-02-08T11:37:17.295Z,7.07
2019-02-08T11:39:50.149Z,9.67
2019-02-08T11:42:23.547Z,7.53
2019-02-08T11:45:13.752Z,6.73
2019-02-08T11:47:45.621Z,10.60
2019-02-08T11:50:18.280Z,9.23
2019-02-08T11:52:49.854Z,12.97
2019-02-08T11:55:22.191Z,5.90
2019-02-08T11:57:56.779Z,9.23
2019-02-08T12:00:50.214Z,9.10
2019-02-08T12:03:21.110Z,6.50
2019-02-08T12:05:52.359Z,5.63
2019-02-08T12:08:22.990Z,6.93
2019-02-08T12:10:54.439Z,12.37
2019-02-08T12:13:25.039Z,9.77
2019-02-08T12:15:56.060Z,9.33
2019-02-08T12:18:26.955Z,8.63
2019-02-08T12:20:57.855Z,8.07
2019-02-08T12:23:28.623Z,7.80
2019-02-08T12:26:05.557Z,4.83
2019-02-08T12:28:36.719Z,7.80
2019-02-08T12:31:08.475Z,6.47
2019-02-08T12:33:40.717Z,3.67
2019-02-08T12:36:14.479Z,6.30
2019-02-08T12:38:49.715Z,4.53
2019-02-08T12:41:22.578Z,5.43
2019-02-08T12:43:54.814Z,6.50
2019-02-08T12:46:29.902Z,6.10
2019-02-08T12:49:03.694Z,8.87
2019-02-08T12:51:40.250Z,5.97
2019-02-08T12:54:12.424Z,5.57
2019-02-08T12:56:46.111Z,6.10
2019-02-08T12:59:17.784Z,4.77
2019-02-08T13:01:51.813Z,3.40
2019-02-08T13:04:24.611Z,5.33
2019-02-08T13:06:58.383Z,3.97
2019-02-08T13:09:29.922Z,5.63
2019-02-08T13:12:01.940Z,3.30
2019-02-08T13:14:32.992Z,6.63
2019-02-08T13:17:19.340Z,7.80
2019-02-08T13:19:50.081Z,2.77
2019-02-08T13:22:23.103Z,4.17
2019-02-08T13:25:07.876Z,3.87
2019-02-08T13:27:39.422Z,7.53
2019-02-08T13:30:24.231Z,8.60
2019-02-08T13:32:55.689Z,5.20
2019-02-08T13:35:28.008Z,5.03
2019-02-08T13:38:01.400Z,4.10
2019-02-08T13:40:34.082Z,9.40
2019-02-08T13:43:04.888Z,4.17
2019-02-08T13:45:36.778Z,2.03
2019-02-08T13:48:16.075Z,4.00
2019-02-08T13:50:46.948Z,3.23
2019-02-08T13:53:18.227Z,4.53
2019-02-08T13:56:07.856Z,7.43
2019-02-08T13:58:47.414Z,3.53
2019-02-08T14:01:18.056Z,8.97
2019-02-08T14:03:51.329Z,4.60
2019-02-08T14:06:23.278Z,6.80
2019-02-08T14:08:53.935Z,5.80
2019-02-08T14:11:24.874Z,4.33
2019-02-08T14:14:10.995Z,4.30
2019-02-08T14:16:42.412Z,3.90
2019-02-08T14:19:12.987Z,6.00
2019-02-08T14:21:44.164Z,3.27
2019-02-08T14:24:17.663Z,9.70
2019-02-08T14:27:08.223Z,7.23
2019-02-08T14:29:35.826Z,9.67
2019-02-08T14:32:18.218Z,10.70
2019-02-08T14:34:51.553Z,12.80
2019-02-08T14:37:23.297Z,15.90
2019-02-08T14:39:55.525Z,3.70
2019-02-08T14:42:30.146Z,5.93
2019-02-08T14:45:03.216Z,4.90
2019-02-08T14:47:36.751Z,10.60
2019-02-08T14:50:08.015Z,8.40
2019-02-08T14:52:41.107Z,19.03
2019-02-08T14:55:12.024Z,13.27
2019-02-08T14:57:45.252Z,18.70
2019-02-08T15:00:19.004Z,17.67
2019-02-08T15:02:51.435Z,21.70
2019-02-08T15:05:30.857Z,14.90
2019-02-08T15:08:01.851Z,18.00
2019-02-08T15:10:35.623Z,14.03
2019-02-08T15:13:18.916Z,16.37
2019-02-08T15:15:50.266Z,19.50
2019-02-08T15:18:20.873Z,18.77
2019-02-08T15:20:51.480Z,24.37
2019-02-08T15:23:23.499Z,19.67
2019-02-08T15:26:08.802Z,22.57
2019-02-08T15:28:39.601Z,23.93
2019-02-08T15:31:10.339Z,16.77
2019-02-08T15:33:41.538Z,18.80
2019-02-08T15:36:14.382Z,18.50
2019-02-08T15:38:46.931Z,19.90
2019-02-08T15:41:19.761Z,19.13
2019-02-08T15:43:51.594Z,21.97
2019-02-08T15:46:23.504Z,20.30
2019-02-08T15:48:56.335Z,26.50
2019-02-08T15:51:27.655Z,21.67
2019-02-08T15:53:59.620Z,18.47
2019-02-08T15:56:31.894Z,22.50
2019-02-08T15:59:04.330Z,22.20
2019-02-08T16:01:37.003Z,25.60
2019-02-08T16:04:07.876Z,31.53
2019-02-08T16:06:54.128Z,32.13
2019-02-08T16:09:28.214Z,31.57
2019-02-08T16:12:03.358Z,37.60
2019-02-08T16:14:37.423Z,36.07
2019-02-08T16:17:10.727Z,40.23
2019-02-08T16:19:59.872Z,33.80
2019-02-08T16:22:44.953Z,39.87
2019-02-08T16:25:16.561Z,39.43
2019-02-08T16:27:48.885Z,45.13
2019-02-08T16:30:25.761Z,41.57
2019-02-08T16:33:03.432Z,48.53
2019-02-08T16:35:36.596Z,63.07
2019-02-08T16:38:08.598Z,52.50
2019-02-08T16:40:42.147Z,46.30
2019-02-08T16:43:12.873Z,44.80
2019-02-08T16:45:44.095Z,43.63
2019-02-08T16:48:15.806Z,41.97
2019-02-08T16:50:49.824Z,39.07
2019-02-08T16:53:24.514Z,45.10
2019-02-08T16:55:59.638Z,48.10
2019-02-08T16:58:31.035Z,45.83
2019-02-08T17:01:01.949Z,45.30
2019-02-08T17:03:33.004Z,41.67
2019-02-08T17:06:05.627Z,43.73
2019-02-08T17:08:36.798Z,49.57
2019-02-08T17:11:10.636Z,42.60
2019-02-08T17:13:43.772Z,40.13
2019-02-08T17:16:18.634Z,41.97
2019-02-08T17:18:50.792Z,48.83
2019-02-08T17:21:21.878Z,40.37
2019-02-08T17:23:52.877Z,44.90
2019-02-08T17:26:29.935Z,43.77
2019-02-08T17:29:01.355Z,44.97
2019-02-08T17:31:31.999Z,45.20
2019-02-08T17:34:03.833Z,44.33
2019-02-08T17:36:36.937Z,44.20
2019-02-08T17:39:26.210Z,42.90
2019-02-08T17:42:15.204Z,37.37
2019-02-08T17:44:45.835Z,41.43
2019-02-08T17:47:16.292Z,37.73
2019-02-08T17:49:50.095Z,44.93
2019-02-08T17:52:33.742Z,44.97
2019-02-08T17:55:05.451Z,41.10
2019-02-08T17:57:38.829Z,42.10
2019-02-08T18:00:19.890Z,50.30
2019-02-08T18:02:54.098Z,49.27
2019-02-08T18:05:29.387Z,40.67
2019-02-08T18:08:18.874Z,39.37
2019-02-08T18:11:08.564Z,44.67
2019-02-08T18:13:53.193Z,44.07
2019-02-08T18:16:24.961Z,72.10
2019-02-08T18:18:58.312Z,91.33
2019-02-08T18:21:31.039Z,73.53
2019-02-08T18:24:05.213Z,50.27
2019-02-08T18:26:38.622Z,38.93
2019-02-08T18:29:10.134Z,43.23
2019-02-08T18:31:49.946Z,41.83
2019-02-08T18:34:21.367Z,42.47
2019-02-08T18:36:54.300Z,46.20
2019-02-08T18:39:26.449Z,37.90
2019-02-08T18:41:57.191Z,40.50
2019-02-08T18:44:29.717Z,43.80
2019-02-08T18:47:03.577Z,37.90
2019-02-08T18:49:36.256Z,43.70
2019-02-08T18:52:08.148Z,43.60
2019-02-08T18:54:38.775Z,46.40
2019-02-08T18:57:10.485Z,45.77
2019-02-08T18:59:45.572Z,45.53
2019-02-08T19:02:18.549Z,49.53
2019-02-08T19:05:08.230Z,43.77
2019-02-08T19:07:40.562Z,52.10
2019-02-08T19:10:14.635Z,45.13
2019-02-08T19:12:50.034Z,56.67
2019-02-08T19:15:27.392Z,43.40
2019-02-08T19:18:06.817Z,43.07
2019-02-08T19:20:37.331Z,39.03
2019-02-08T19:23:09.526Z,41.30
2019-02-08T19:25:42.659Z,43.97
2019-02-08T19:28:15.506Z,47.57
2019-02-08T19:30:47.211Z,43.40
2019-02-08T19:33:24.554Z,46.10
2019-02-08T19:35:57.083Z,44.07
2019-02-08T19:38:28.149Z,45.10
2019-02-08T19:40:59.112Z,42.07
2019-02-08T19:43:30.313Z,39.73
2019-02-08T19:46:01.368Z,46.07
2019-02-08T19:48:32.015Z,49.90
2019-02-08T19:51:02.539Z,42.77
2019-02-08T19:53:33.430Z,45.23
2019-02-08T19:56:04.839Z,43.20
2019-02-08T19:58:35.519Z,46.67
2019-02-08T20:01:07.817Z,44.87
2019-02-08T20:03:44.258Z,45.97
2019-02-08T20:06:16.920Z,54.83
2019-02-08T20:08:50.159Z,51.70
2019-02-08T20:11:23.868Z,49.67
2019-02-08T20:13:54.825Z,49.60
2019-02-08T20:16:25.935Z,41.77
2019-02-08T20:18:58.498Z,49.83
2019-02-08T20:21:29.429Z,46.10
2019-02-08T20:24:00.189Z,46.83
2019-02-08T20:26:30.833Z,49.10
2019-02-08T20:29:02.230Z,49.57
2019-02-08T20:31:33.013Z,49.67
2019-02-08T20:34:03.977Z,54.57
2019-02-08T20:36:34.713Z,55.53
2019-02-08T20:39:08.659Z,53.33
2019-02-08T20:41:41.012Z,60.90
2019-02-08T20:44:14.071Z,49.43
2019-02-08T20:46:44.947Z,54.17
2019-02-08T20:49:30.877Z,51.77
2019-02-08T20:52:01.996Z,52.87
2019-02-08T20:54:35.087Z,53.73
2019-02-08T20:57:06.995Z,56.90
2019-02-08T20:59:37.768Z,51.20
2019-02-08T21:02:10.155Z,65.53
2019-02-08T21:04:42.640Z,55.90
2019-02-08T21:07:31.891Z,60.80
2019-02-08T21:10:03.694Z,54.53
2019-02-08T21:12:34.279Z,54.70
2019-02-08T21:15:05.415Z,64.97
2019-02-08T21:17:35.998Z,65.67
2019-02-08T21:20:07.211Z,61.30
2019-02-08T21:22:37.704Z,59.03
2019-02-08T21:25:11.106Z,62.40
2019-02-08T21:27:44.154Z,55.27
2019-02-08T21:30:20.119Z,63.83
2019-02-08T21:32:50.995Z,59.23
2019-02-08T21:35:22.126Z,62.10
2019-02-08T21:37:53.278Z,58.87
2019-02-08T21:40:27.622Z,65.70
2019-02-08T21:42:58.335Z,59.30
2019-02-08T21:45:33.524Z,67.17
2019-02-08T21:48:08.666Z,58.23
2019-02-08T21:50:52.019Z,64.17
2019-02-08T21:53:24.209Z,62.17
2019-02-08T21:55:57.160Z,65.73
2019-02-08T21:58:28.214Z,66.83
2019-02-08T22:01:00.793Z,60.40
2019-02-08T22:03:33.361Z,61.03
2019-02-08T22:06:08.582Z,60.33
2019-02-08T22:08:51.467Z,61.27
2019-02-08T22:11:25.269Z,57.20
2019-02-08T22:14:00.666Z,69.43
2019-02-08T22:16:33.376Z,58.23
2019-02-08T22:19:14.124Z,63.33
2019-02-08T22:21:49.338Z,61.90
2019-02-08T22:24:21.124Z,63.13
2019-02-08T22:26:54.526Z,62.03
2019-02-08T22:29:25.338Z,65.07
2019-02-08T22:32:04.218Z,66.93
2019-02-08T22:34:36.302Z,57.87
2019-02-08T22:37:07.409Z,68.23
2019-02-08T22:39:40.685Z,67.90
2019-02-08T22:42:13.372Z,66.17
2019-02-08T22:44:52.195Z,63.40
2019-02-08T22:47:24.249Z,65.93
2019-02-08T22:49:58.382Z,68.67
2019-02-08T22:52:31.284Z,66.90
2019-02-08T22:55:03.199Z,63.20
2019-02-08T22:57:35.452Z,66.67
2019-02-08T23:00:43.843Z,65.60
2019-02-08T23:03:14.676Z,66.13
2019-02-08T23:05:48.897Z,71.20
2019-02-08T23:08:19.352Z,63.50
2019-02-08T23:10:50.367Z,61.93
2019-02-08T23:13:21.574Z,66.57
2019-02-08T23:15:53.035Z,67.33
2019-02-08T23:18:25.478Z,68.80
2019-02-08T23:20:57.833Z,68.63
2019-02-08T23:23:31.316Z,65.40
2019-02-08T23:26:23.074Z,68.70
2019-02-08T23:29:06.742Z,58.07
2019-02-08T23:31:37.539Z,59.57
2019-02-08T23:34:10.593Z,68.03
2019-02-08T23:36:45.543Z,61.97
2019-02-08T23:39:18.176Z,63.37
2019-02-08T23:41:52.575Z,63.90
2019-02-08T23:44:26.525Z,57.43
2019-02-08T23:46:58.901Z,60.47
2019-02-08T23:49:32.400Z,58.93
2019-02-08T23:52:17.517Z,57.27
2019-02-08T23:54:50.797Z,62.20
2019-02-08T23:57:39.912Z,63.73
